メインページ
METAR-TAF:

METAR-TAF

空港 :

Bradshaw Army Air Field

Bradshaw, ハワイ州, アメリカ合衆国

緯度: 19-47N, 経度: 155-33W, 海抜: 1887m

現時点の気象観測

当レポートは45分前の08:56(UTC)に作成
南東の風 7kt
気温 9°C
湿度 71%
気圧 1026 hPa
視程: 16.1km
晴天

METAR: PHSF 160856Z AUTO 14007KT 10SM CLR 09/04 A3029 RMK AO2 SLP148 WND DATA ESTMD T00930043 50002 PWINO $

時間: 23:41 (09:41 UTC)


TAF: 見つかりません

4,000以上の空港の気象観測と天気予報(METAR報とTAF報)

利用可能な観測所は地図上に黄色い丸と赤い丸で示す。

丸の上にカーソルを重ねると観測所名を参照できる。

次にクリックすると気象観測と天気予報を参照できる。

マップの切り替え:黒色「×」印の緑ボタンをクリックして拡大、「-」印の緑ボタンをクリックして縮小、緑色の三角印をクリックして隣りの地図に切り替え


METAR-TAF: